sensor_id;sensor_type;location;lat;lon;timestamp;P1;durP1;ratioP1;P2;durP2;ratioP2
57828;SDS011;43657;52.698;6.314;2023-12-20T00:02:09;24.63;;;5.57;;
57828;SDS011;43657;52.698;6.314;2023-12-20T00:04:40;20.50;;;5.57;;
57828;SDS011;43657;52.698;6.314;2023-12-20T00:07:09;29.42;;;6.03;;
57828;SDS011;43657;52.698;6.314;2023-12-20T00:09:46;21.88;;;4.78;;
57828;SDS011;43657;52.698;6.314;2023-12-20T00:12:12;26.35;;;5.97;;
57828;SDS011;43657;52.698;6.314;2023-12-20T00:14:40;31.10;;;5.75;;
57828;SDS011;43657;52.698;6.314;2023-12-20T00:17:14;29.23;;;5.75;;
57828;SDS011;43657;52.698;6.314;2023-12-20T00:19:40;29.15;;;5.65;;
57828;SDS011;43657;52.698;6.314;2023-12-20T00:22:11;25.83;;;4.97;;
57828;SDS011;43657;52.698;6.314;2023-12-20T00:24:42;28.35;;;5.32;;
57828;SDS011;43657;52.698;6.314;2023-12-20T00:27:28;24.45;;;5.15;;
57828;SDS011;43657;52.698;6.314;2023-12-20T00:29:57;22.05;;;4.90;;
57828;SDS011;43657;52.698;6.314;2023-12-20T00:32:23;33.60;;;5.85;;
57828;SDS011;43657;52.698;6.314;2023-12-20T00:34:51;29.55;;;6.53;;
57828;SDS011;43657;52.698;6.314;2023-12-20T00:37:25;32.78;;;6.18;;
57828;SDS011;43657;52.698;6.314;2023-12-20T00:39:54;23.02;;;5.28;;
57828;SDS011;43657;52.698;6.314;2023-12-20T00:42:48;34.85;;;6.43;;
57828;SDS011;43657;52.698;6.314;2023-12-20T00:45:16;24.38;;;5.60;;
57828;SDS011;43657;52.698;6.314;2023-12-20T00:47:50;32.20;;;5.90;;
57828;SDS011;43657;52.698;6.314;2023-12-20T00:50:21;26.83;;;5.88;;
57828;SDS011;43657;52.698;6.314;2023-12-20T00:52:54;26.30;;;5.90;;
57828;SDS011;43657;52.698;6.314;2023-12-20T00:55:24;26.27;;;5.75;;
57828;SDS011;43657;52.698;6.314;2023-12-20T00:57:58;21.50;;;5.60;;
57828;SDS011;43657;52.698;6.314;2023-12-20T01:00:29;28.73;;;5.93;;
57828;SDS011;43657;52.698;6.314;2023-12-20T01:02:54;24.85;;;5.35;;
57828;SDS011;43657;52.698;6.314;2023-12-20T01:05:20;28.05;;;7.18;;
57828;SDS011;43657;52.698;6.314;2023-12-20T01:07:48;28.08;;;6.13;;
57828;SDS011;43657;52.698;6.314;2023-12-20T01:10:22;27.80;;;6.90;;
57828;SDS011;43657;52.698;6.314;2023-12-20T01:12:56;28.17;;;6.55;;
57828;SDS011;43657;52.698;6.314;2023-12-20T01:15:27;32.75;;;6.82;;
57828;SDS011;43657;52.698;6.314;2023-12-20T01:17:55;28.17;;;6.82;;
57828;SDS011;43657;52.698;6.314;2023-12-20T01:20:24;30.65;;;6.65;;
57828;SDS011;43657;52.698;6.314;2023-12-20T01:22:50;31.73;;;6.13;;
57828;SDS011;43657;52.698;6.314;2023-12-20T01:25:18;32.60;;;6.80;;
57828;SDS011;43657;52.698;6.314;2023-12-20T01:27:49;29.92;;;5.78;;
57828;SDS011;43657;52.698;6.314;2023-12-20T01:30:21;30.40;;;6.90;;
57828;SDS011;43657;52.698;6.314;2023-12-20T01:32:55;28.88;;;6.88;;
57828;SDS011;43657;52.698;6.314;2023-12-20T01:35:21;33.13;;;6.93;;
57828;SDS011;43657;52.698;6.314;2023-12-20T01:37:50;30.33;;;6.70;;
57828;SDS011;43657;52.698;6.314;2023-12-20T01:40:22;32.80;;;6.60;;
57828;SDS011;43657;52.698;6.314;2023-12-20T01:43:02;36.70;;;7.07;;
57828;SDS011;43657;52.698;6.314;2023-12-20T01:45:37;22.92;;;5.88;;
57828;SDS011;43657;52.698;6.314;2023-12-20T01:48:06;30.15;;;6.75;;
57828;SDS011;43657;52.698;6.314;2023-12-20T01:50:37;33.13;;;6.70;;
57828;SDS011;43657;52.698;6.314;2023-12-20T01:53:12;30.73;;;5.78;;
57828;SDS011;43657;52.698;6.314;2023-12-20T01:55:42;28.08;;;6.45;;
57828;SDS011;43657;52.698;6.314;2023-12-20T01:58:17;35.50;;;6.45;;
57828;SDS011;43657;52.698;6.314;2023-12-20T02:00:46;29.35;;;5.45;;
57828;SDS011;43657;52.698;6.314;2023-12-20T02:03:18;26.88;;;5.65;;
57828;SDS011;43657;52.698;6.314;2023-12-20T02:05:46;31.70;;;6.00;;
57828;SDS011;43657;52.698;6.314;2023-12-20T02:08:13;28.80;;;6.53;;
57828;SDS011;43657;52.698;6.314;2023-12-20T02:10:50;26.40;;;5.40;;
57828;SDS011;43657;52.698;6.314;2023-12-20T02:13:15;22.35;;;4.97;;
57828;SDS011;43657;52.698;6.314;2023-12-20T02:15:41;22.73;;;5.57;;
57828;SDS011;43657;52.698;6.314;2023-12-20T02:18:08;20.17;;;4.65;;
57828;SDS011;43657;52.698;6.314;2023-12-20T02:20:34;26.05;;;4.82;;
57828;SDS011;43657;52.698;6.314;2023-12-20T02:22:59;28.50;;;5.72;;
57828;SDS011;43657;52.698;6.314;2023-12-20T02:25:25;17.20;;;4.68;;
57828;SDS011;43657;52.698;6.314;2023-12-20T02:27:50;30.80;;;6.70;;
57828;SDS011;43657;52.698;6.314;2023-12-20T02:30:17;27.85;;;7.03;;
57828;SDS011;43657;52.698;6.314;2023-12-20T02:32:42;28.13;;;7.35;;
57828;SDS011;43657;52.698;6.314;2023-12-20T02:35:08;33.45;;;6.85;;
57828;SDS011;43657;52.698;6.314;2023-12-20T02:37:33;37.13;;;7.95;;
57828;SDS011;43657;52.698;6.314;2023-12-20T02:39:59;42.03;;;9.45;;
57828;SDS011;43657;52.698;6.314;2023-12-20T02:42:25;34.42;;;8.32;;
57828;SDS011;43657;52.698;6.314;2023-12-20T02:44:50;36.17;;;7.88;;
57828;SDS011;43657;52.698;6.314;2023-12-20T02:47:16;32.80;;;7.32;;
57828;SDS011;43657;52.698;6.314;2023-12-20T02:49:41;33.97;;;8.13;;
57828;SDS011;43657;52.698;6.314;2023-12-20T02:52:07;33.90;;;7.55;;
57828;SDS011;43657;52.698;6.314;2023-12-20T02:54:32;40.30;;;7.85;;
57828;SDS011;43657;52.698;6.314;2023-12-20T02:56:58;39.47;;;7.88;;
57828;SDS011;43657;52.698;6.314;2023-12-20T02:59:23;37.80;;;7.90;;
57828;SDS011;43657;52.698;6.314;2023-12-20T03:01:49;40.63;;;8.70;;
57828;SDS011;43657;52.698;6.314;2023-12-20T03:04:14;39.00;;;8.15;;
57828;SDS011;43657;52.698;6.314;2023-12-20T03:06:40;41.47;;;8.10;;
57828;SDS011;43657;52.698;6.314;2023-12-20T03:09:05;54.90;;;10.48;;
57828;SDS011;43657;52.698;6.314;2023-12-20T03:11:31;40.92;;;8.00;;
57828;SDS011;43657;52.698;6.314;2023-12-20T03:13:57;45.33;;;9.02;;
57828;SDS011;43657;52.698;6.314;2023-12-20T03:16:23;49.05;;;9.63;;
57828;SDS011;43657;52.698;6.314;2023-12-20T03:18:48;40.78;;;8.57;;
57828;SDS011;43657;52.698;6.314;2023-12-20T03:21:14;34.97;;;8.73;;
57828;SDS011;43657;52.698;6.314;2023-12-20T03:23:40;42.55;;;8.52;;
57828;SDS011;43657;52.698;6.314;2023-12-20T03:26:09;46.17;;;9.70;;
57828;SDS011;43657;52.698;6.314;2023-12-20T03:28:38;38.63;;;8.68;;
57828;SDS011;43657;52.698;6.314;2023-12-20T03:31:03;38.65;;;9.07;;
57828;SDS011;43657;52.698;6.314;2023-12-20T03:33:29;39.83;;;8.60;;
57828;SDS011;43657;52.698;6.314;2023-12-20T03:35:55;40.22;;;9.00;;
57828;SDS011;43657;52.698;6.314;2023-12-20T03:38:20;42.28;;;9.20;;
57828;SDS011;43657;52.698;6.314;2023-12-20T03:40:48;37.17;;;8.57;;
57828;SDS011;43657;52.698;6.314;2023-12-20T03:43:14;41.58;;;9.10;;
57828;SDS011;43657;52.698;6.314;2023-12-20T03:45:40;40.22;;;8.65;;
57828;SDS011;43657;52.698;6.314;2023-12-20T03:48:06;39.05;;;8.95;;
57828;SDS011;43657;52.698;6.314;2023-12-20T03:50:32;41.40;;;8.77;;
57828;SDS011;43657;52.698;6.314;2023-12-20T03:52:58;34.75;;;7.38;;
57828;SDS011;43657;52.698;6.314;2023-12-20T03:55:23;38.33;;;8.85;;
57828;SDS011;43657;52.698;6.314;2023-12-20T03:57:49;33.97;;;8.30;;
57828;SDS011;43657;52.698;6.314;2023-12-20T04:00:14;41.90;;;8.60;;
57828;SDS011;43657;52.698;6.314;2023-12-20T04:02:40;35.53;;;8.35;;
57828;SDS011;43657;52.698;6.314;2023-12-20T04:05:07;45.08;;;8.98;;
57828;SDS011;43657;52.698;6.314;2023-12-20T04:07:33;38.65;;;8.35;;
57828;SDS011;43657;52.698;6.314;2023-12-20T04:10:00;43.72;;;8.55;;
57828;SDS011;43657;52.698;6.314;2023-12-20T04:12:26;43.75;;;8.57;;
57828;SDS011;43657;52.698;6.314;2023-12-20T04:14:53;36.88;;;7.32;;
57828;SDS011;43657;52.698;6.314;2023-12-20T04:17:18;35.00;;;8.00;;
57828;SDS011;43657;52.698;6.314;2023-12-20T04:19:45;40.08;;;9.65;;
57828;SDS011;43657;52.698;6.314;2023-12-20T04:22:10;40.13;;;9.38;;
57828;SDS011;43657;52.698;6.314;2023-12-20T04:24:36;42.13;;;9.32;;
57828;SDS011;43657;52.698;6.314;2023-12-20T04:27:01;45.28;;;9.20;;
57828;SDS011;43657;52.698;6.314;2023-12-20T04:29:27;35.25;;;9.27;;
57828;SDS011;43657;52.698;6.314;2023-12-20T04:31:53;31.83;;;8.13;;
57828;SDS011;43657;52.698;6.314;2023-12-20T04:34:19;41.78;;;8.63;;
57828;SDS011;43657;52.698;6.314;2023-12-20T04:36:44;38.10;;;9.07;;
57828;SDS011;43657;52.698;6.314;2023-12-20T04:39:11;37.00;;;9.05;;
57828;SDS011;43657;52.698;6.314;2023-12-20T04:41:37;33.28;;;8.65;;
57828;SDS011;43657;52.698;6.314;2023-12-20T04:44:03;40.55;;;9.07;;
57828;SDS011;43657;52.698;6.314;2023-12-20T04:46:29;35.55;;;8.60;;
57828;SDS011;43657;52.698;6.314;2023-12-20T04:48:54;40.97;;;8.73;;
57828;SDS011;43657;52.698;6.314;2023-12-20T04:51:20;35.58;;;8.68;;
57828;SDS011;43657;52.698;6.314;2023-12-20T04:53:46;31.38;;;8.68;;
57828;SDS011;43657;52.698;6.314;2023-12-20T04:56:11;33.90;;;7.95;;
57828;SDS011;43657;52.698;6.314;2023-12-20T04:58:37;41.72;;;8.98;;
57828;SDS011;43657;52.698;6.314;2023-12-20T05:01:03;41.03;;;8.43;;
57828;SDS011;43657;52.698;6.314;2023-12-20T05:03:30;37.05;;;8.55;;
57828;SDS011;43657;52.698;6.314;2023-12-20T05:05:56;39.95;;;8.35;;
57828;SDS011;43657;52.698;6.314;2023-12-20T05:08:21;33.72;;;8.35;;
57828;SDS011;43657;52.698;6.314;2023-12-20T05:10:47;36.42;;;8.70;;
57828;SDS011;43657;52.698;6.314;2023-12-20T05:13:13;43.65;;;9.13;;
57828;SDS011;43657;52.698;6.314;2023-12-20T05:15:38;33.97;;;8.20;;
57828;SDS011;43657;52.698;6.314;2023-12-20T05:18:04;36.97;;;8.73;;
57828;SDS011;43657;52.698;6.314;2023-12-20T05:20:29;36.08;;;9.02;;
57828;SDS011;43657;52.698;6.314;2023-12-20T05:22:55;38.50;;;7.57;;
57828;SDS011;43657;52.698;6.314;2023-12-20T05:25:20;39.45;;;8.57;;
57828;SDS011;43657;52.698;6.314;2023-12-20T05:27:46;28.88;;;6.85;;
57828;SDS011;43657;52.698;6.314;2023-12-20T05:30:12;36.72;;;8.43;;
57828;SDS011;43657;52.698;6.314;2023-12-20T05:32:37;30.15;;;7.72;;
57828;SDS011;43657;52.698;6.314;2023-12-20T05:35:03;42.05;;;8.50;;
57828;SDS011;43657;52.698;6.314;2023-12-20T05:37:29;33.67;;;7.50;;
57828;SDS011;43657;52.698;6.314;2023-12-20T05:39:54;35.33;;;8.30;;
57828;SDS011;43657;52.698;6.314;2023-12-20T05:42:20;33.63;;;7.88;;
57828;SDS011;43657;52.698;6.314;2023-12-20T05:44:45;31.40;;;7.05;;
57828;SDS011;43657;52.698;6.314;2023-12-20T05:47:11;38.75;;;8.65;;
57828;SDS011;43657;52.698;6.314;2023-12-20T05:49:36;33.63;;;7.78;;
57828;SDS011;43657;52.698;6.314;2023-12-20T05:52:02;33.03;;;7.30;;
57828;SDS011;43657;52.698;6.314;2023-12-20T05:54:28;34.65;;;7.68;;
57828;SDS011;43657;52.698;6.314;2023-12-20T05:56:53;29.55;;;7.18;;
57828;SDS011;43657;52.698;6.314;2023-12-20T05:59:19;29.77;;;6.55;;
57828;SDS011;43657;52.698;6.314;2023-12-20T06:01:44;32.25;;;7.65;;
57828;SDS011;43657;52.698;6.314;2023-12-20T06:04:10;30.10;;;6.80;;
57828;SDS011;43657;52.698;6.314;2023-12-20T06:06:40;32.92;;;7.35;;
57828;SDS011;43657;52.698;6.314;2023-12-20T06:09:07;33.30;;;7.22;;
57828;SDS011;43657;52.698;6.314;2023-12-20T06:11:32;35.58;;;7.85;;
57828;SDS011;43657;52.698;6.314;2023-12-20T06:13:58;34.17;;;8.02;;
57828;SDS011;43657;52.698;6.314;2023-12-20T06:16:23;34.03;;;7.97;;
57828;SDS011;43657;52.698;6.314;2023-12-20T06:18:49;37.83;;;7.05;;
57828;SDS011;43657;52.698;6.314;2023-12-20T06:21:14;35.40;;;8.85;;
57828;SDS011;43657;52.698;6.314;2023-12-20T06:23:40;29.88;;;7.28;;
57828;SDS011;43657;52.698;6.314;2023-12-20T06:26:06;29.42;;;7.25;;
57828;SDS011;43657;52.698;6.314;2023-12-20T06:28:31;28.17;;;6.93;;
57828;SDS011;43657;52.698;6.314;2023-12-20T06:30:57;30.00;;;6.45;;
57828;SDS011;43657;52.698;6.314;2023-12-20T06:33:23;30.30;;;6.90;;
57828;SDS011;43657;52.698;6.314;2023-12-20T06:35:49;25.35;;;6.22;;
57828;SDS011;43657;52.698;6.314;2023-12-20T06:38:14;26.95;;;6.22;;
57828;SDS011;43657;52.698;6.314;2023-12-20T06:40:40;32.08;;;6.30;;
57828;SDS011;43657;52.698;6.314;2023-12-20T06:43:05;30.83;;;7.13;;
57828;SDS011;43657;52.698;6.314;2023-12-20T06:45:32;29.42;;;6.68;;
57828;SDS011;43657;52.698;6.314;2023-12-20T06:47:57;30.67;;;6.78;;
57828;SDS011;43657;52.698;6.314;2023-12-20T06:50:23;27.08;;;6.50;;
57828;SDS011;43657;52.698;6.314;2023-12-20T06:52:49;33.45;;;7.20;;
57828;SDS011;43657;52.698;6.314;2023-12-20T06:55:14;30.65;;;7.72;;
57828;SDS011;43657;52.698;6.314;2023-12-20T06:57:40;29.40;;;6.93;;
57828;SDS011;43657;52.698;6.314;2023-12-20T07:00:06;29.00;;;6.50;;
57828;SDS011;43657;52.698;6.314;2023-12-20T07:02:33;27.05;;;6.68;;
57828;SDS011;43657;52.698;6.314;2023-12-20T07:04:59;34.35;;;7.60;;
57828;SDS011;43657;52.698;6.314;2023-12-20T07:07:25;30.00;;;6.55;;
57828;SDS011;43657;52.698;6.314;2023-12-20T07:09:51;32.65;;;6.88;;
57828;SDS011;43657;52.698;6.314;2023-12-20T07:12:16;34.28;;;7.18;;
57828;SDS011;43657;52.698;6.314;2023-12-20T07:14:44;32.00;;;6.88;;
57828;SDS011;43657;52.698;6.314;2023-12-20T07:17:10;29.08;;;7.10;;
57828;SDS011;43657;52.698;6.314;2023-12-20T07:19:38;26.88;;;6.47;;
57828;SDS011;43657;52.698;6.314;2023-12-20T07:22:05;27.88;;;6.32;;
57828;SDS011;43657;52.698;6.314;2023-12-20T07:24:31;28.63;;;7.55;;
57828;SDS011;43657;52.698;6.314;2023-12-20T07:26:58;35.38;;;7.13;;
57828;SDS011;43657;52.698;6.314;2023-12-20T07:29:24;38.60;;;8.52;;
57828;SDS011;43657;52.698;6.314;2023-12-20T07:31:50;30.88;;;6.60;;
57828;SDS011;43657;52.698;6.314;2023-12-20T07:34:17;29.88;;;6.82;;
57828;SDS011;43657;52.698;6.314;2023-12-20T07:36:42;30.98;;;6.82;;
57828;SDS011;43657;52.698;6.314;2023-12-20T07:39:08;33.25;;;7.30;;
57828;SDS011;43657;52.698;6.314;2023-12-20T07:41:34;32.30;;;7.40;;
57828;SDS011;43657;52.698;6.314;2023-12-20T07:43:59;30.98;;;6.55;;
57828;SDS011;43657;52.698;6.314;2023-12-20T07:46:25;30.27;;;6.55;;
57828;SDS011;43657;52.698;6.314;2023-12-20T07:48:50;34.17;;;6.80;;
57828;SDS011;43657;52.698;6.314;2023-12-20T07:51:16;34.88;;;7.28;;
57828;SDS011;43657;52.698;6.314;2023-12-20T07:53:42;32.95;;;8.18;;
57828;SDS011;43657;52.698;6.314;2023-12-20T07:56:17;35.30;;;7.70;;
57828;SDS011;43657;52.698;6.314;2023-12-20T07:58:44;40.15;;;8.52;;
57828;SDS011;43657;52.698;6.314;2023-12-20T08:01:10;38.13;;;7.95;;
57828;SDS011;43657;52.698;6.314;2023-12-20T08:03:36;36.25;;;8.15;;
57828;SDS011;43657;52.698;6.314;2023-12-20T08:06:02;36.88;;;7.57;;
57828;SDS011;43657;52.698;6.314;2023-12-20T08:08:28;27.23;;;7.03;;
57828;SDS011;43657;52.698;6.314;2023-12-20T08:10:54;32.80;;;6.97;;
57828;SDS011;43657;52.698;6.314;2023-12-20T08:13:22;36.65;;;7.80;;
57828;SDS011;43657;52.698;6.314;2023-12-20T08:15:54;34.35;;;7.20;;
57828;SDS011;43657;52.698;6.314;2023-12-20T08:18:25;28.95;;;7.32;;
57828;SDS011;43657;52.698;6.314;2023-12-20T08:21:01;34.78;;;7.78;;
57828;SDS011;43657;52.698;6.314;2023-12-20T08:23:27;29.38;;;7.38;;
57828;SDS011;43657;52.698;6.314;2023-12-20T08:25:56;47.90;;;8.60;;
57828;SDS011;43657;52.698;6.314;2023-12-20T08:28:24;31.98;;;7.32;;
57828;SDS011;43657;52.698;6.314;2023-12-20T08:30:52;33.90;;;7.47;;
57828;SDS011;43657;52.698;6.314;2023-12-20T08:33:18;32.53;;;7.25;;
57828;SDS011;43657;52.698;6.314;2023-12-20T08:35:44;38.58;;;8.13;;
57828;SDS011;43657;52.698;6.314;2023-12-20T08:38:12;32.55;;;7.22;;
57828;SDS011;43657;52.698;6.314;2023-12-20T08:40:42;30.80;;;7.53;;
57828;SDS011;43657;52.698;6.314;2023-12-20T08:43:17;35.83;;;7.95;;
57828;SDS011;43657;52.698;6.314;2023-12-20T08:45:43;31.02;;;7.05;;
57828;SDS011;43657;52.698;6.314;2023-12-20T08:48:17;27.17;;;7.07;;
57828;SDS011;43657;52.698;6.314;2023-12-20T08:50:48;27.52;;;6.28;;
57828;SDS011;43657;52.698;6.314;2023-12-20T08:53:17;35.38;;;7.30;;
57828;SDS011;43657;52.698;6.314;2023-12-20T08:55:52;30.63;;;6.78;;
57828;SDS011;43657;52.698;6.314;2023-12-20T08:58:45;32.63;;;7.03;;
57828;SDS011;43657;52.698;6.314;2023-12-20T09:01:16;27.45;;;7.28;;
57828;SDS011;43657;52.698;6.314;2023-12-20T09:03:50;31.25;;;7.25;;
57828;SDS011;43657;52.698;6.314;2023-12-20T09:06:18;28.67;;;5.95;;
57828;SDS011;43657;52.698;6.314;2023-12-20T09:09:06;32.45;;;7.20;;
57828;SDS011;43657;52.698;6.314;2023-12-20T09:11:41;36.30;;;7.10;;
57828;SDS011;43657;52.698;6.314;2023-12-20T09:14:13;35.95;;;7.22;;
57828;SDS011;43657;52.698;6.314;2023-12-20T09:17:00;28.27;;;6.00;;
57828;SDS011;43657;52.698;6.314;2023-12-20T09:19:29;25.30;;;6.18;;
57828;SDS011;43657;52.698;6.314;2023-12-20T09:22:02;31.63;;;6.22;;
57828;SDS011;43657;52.698;6.314;2023-12-20T09:24:34;26.13;;;6.00;;
57828;SDS011;43657;52.698;6.314;2023-12-20T09:27:07;24.95;;;5.53;;
57828;SDS011;43657;52.698;6.314;2023-12-20T09:29:39;28.42;;;6.22;;
57828;SDS011;43657;52.698;6.314;2023-12-20T09:32:09;27.38;;;6.45;;
57828;SDS011;43657;52.698;6.314;2023-12-20T09:34:37;28.45;;;7.43;;
57828;SDS011;43657;52.698;6.314;2023-12-20T09:37:15;26.45;;;6.55;;
57828;SDS011;43657;52.698;6.314;2023-12-20T09:39:52;30.27;;;6.70;;
57828;SDS011;43657;52.698;6.314;2023-12-20T09:42:21;32.03;;;7.22;;
57828;SDS011;43657;52.698;6.314;2023-12-20T09:45:03;31.33;;;6.95;;
57828;SDS011;43657;52.698;6.314;2023-12-20T09:47:37;26.40;;;6.38;;
57828;SDS011;43657;52.698;6.314;2023-12-20T09:50:11;21.02;;;5.90;;
57828;SDS011;43657;52.698;6.314;2023-12-20T09:52:47;24.55;;;6.35;;
57828;SDS011;43657;52.698;6.314;2023-12-20T09:55:25;27.15;;;6.75;;
57828;SDS011;43657;52.698;6.314;2023-12-20T09:57:55;25.50;;;6.03;;
57828;SDS011;43657;52.698;6.314;2023-12-20T10:00:40;26.50;;;6.60;;
57828;SDS011;43657;52.698;6.314;2023-12-20T10:03:19;28.95;;;6.55;;
57828;SDS011;43657;52.698;6.314;2023-12-20T10:06:02;25.20;;;5.90;;
57828;SDS011;43657;52.698;6.314;2023-12-20T10:08:30;24.48;;;6.57;;
57828;SDS011;43657;52.698;6.314;2023-12-20T10:11:18;13.88;;;2.90;;
57828;SDS011;43657;52.698;6.314;2023-12-20T10:13:45;13.55;;;3.15;;
57828;SDS011;43657;52.698;6.314;2023-12-20T10:16:15;15.65;;;3.80;;
57828;SDS011;43657;52.698;6.314;2023-12-20T10:18:44;12.95;;;2.80;;
57828;SDS011;43657;52.698;6.314;2023-12-20T10:21:13;12.05;;;2.90;;
57828;SDS011;43657;52.698;6.314;2023-12-20T10:23:38;12.23;;;3.28;;
57828;SDS011;43657;52.698;6.314;2023-12-20T10:26:20;10.57;;;2.58;;
57828;SDS011;43657;52.698;6.314;2023-12-20T10:29:01;14.52;;;3.20;;
57828;SDS011;43657;52.698;6.314;2023-12-20T10:31:34;10.95;;;2.88;;
57828;SDS011;43657;52.698;6.314;2023-12-20T10:34:04;13.57;;;3.08;;
57828;SDS011;43657;52.698;6.314;2023-12-20T10:36:32;12.55;;;3.13;;
57828;SDS011;43657;52.698;6.314;2023-12-20T10:39:03;12.77;;;2.67;;
57828;SDS011;43657;52.698;6.314;2023-12-20T10:41:44;12.02;;;3.00;;
57828;SDS011;43657;52.698;6.314;2023-12-20T10:44:19;12.32;;;3.05;;
57828;SDS011;43657;52.698;6.314;2023-12-20T10:46:53;15.07;;;3.13;;
57828;SDS011;43657;52.698;6.314;2023-12-20T10:49:30;16.55;;;2.85;;
57828;SDS011;43657;52.698;6.314;2023-12-20T10:51:56;15.27;;;3.00;;
57828;SDS011;43657;52.698;6.314;2023-12-20T10:54:25;15.13;;;3.20;;
57828;SDS011;43657;52.698;6.314;2023-12-20T10:56:52;17.40;;;3.20;;
57828;SDS011;43657;52.698;6.314;2023-12-20T10:59:27;13.55;;;2.95;;
57828;SDS011;43657;52.698;6.314;2023-12-20T11:02:03;15.15;;;3.08;;
57828;SDS011;43657;52.698;6.314;2023-12-20T11:07:59;15.93;;;2.90;;
57828;SDS011;43657;52.698;6.314;2023-12-20T11:13:35;15.60;;;3.35;;
57828;SDS011;43657;52.698;6.314;2023-12-20T11:16:25;21.30;;;4.30;;
57828;SDS011;43657;52.698;6.314;2023-12-20T11:18:56;23.05;;;4.70;;
57828;SDS011;43657;52.698;6.314;2023-12-20T11:21:29;16.20;;;4.00;;
57828;SDS011;43657;52.698;6.314;2023-12-20T11:24:00;16.83;;;4.13;;
57828;SDS011;43657;52.698;6.314;2023-12-20T11:26:31;15.88;;;3.10;;
57828;SDS011;43657;52.698;6.314;2023-12-20T11:34:53;16.67;;;3.25;;
57828;SDS011;43657;52.698;6.314;2023-12-20T11:37:40;21.15;;;3.85;;
57828;SDS011;43657;52.698;6.314;2023-12-20T11:40:19;19.70;;;3.70;;
57828;SDS011;43657;52.698;6.314;2023-12-20T11:42:50;15.05;;;2.90;;
57828;SDS011;43657;52.698;6.314;2023-12-20T11:45:20;17.35;;;3.25;;
57828;SDS011;43657;52.698;6.314;2023-12-20T11:47:52;17.90;;;3.17;;
57828;SDS011;43657;52.698;6.314;2023-12-20T11:50:22;17.38;;;3.05;;
57828;SDS011;43657;52.698;6.314;2023-12-20T11:53:01;11.73;;;2.47;;
57828;SDS011;43657;52.698;6.314;2023-12-20T11:55:32;19.13;;;3.00;;
57828;SDS011;43657;52.698;6.314;2023-12-20T11:58:04;11.73;;;2.45;;
57828;SDS011;43657;52.698;6.314;2023-12-20T12:00:36;12.35;;;2.72;;
57828;SDS011;43657;52.698;6.314;2023-12-20T12:03:09;16.88;;;3.13;;
57828;SDS011;43657;52.698;6.314;2023-12-20T12:05:50;15.25;;;3.00;;
57828;SDS011;43657;52.698;6.314;2023-12-20T12:08:23;17.98;;;3.55;;
57828;SDS011;43657;52.698;6.314;2023-12-20T12:11:05;15.18;;;2.90;;
57828;SDS011;43657;52.698;6.314;2023-12-20T12:13:31;20.75;;;3.58;;
57828;SDS011;43657;52.698;6.314;2023-12-20T12:15:56;18.50;;;2.88;;
57828;SDS011;43657;52.698;6.314;2023-12-20T12:18:27;19.23;;;4.28;;
57828;SDS011;43657;52.698;6.314;2023-12-20T12:21:18;14.85;;;3.10;;
57828;SDS011;43657;52.698;6.314;2023-12-20T12:23:45;15.05;;;2.95;;
57828;SDS011;43657;52.698;6.314;2023-12-20T12:26:11;16.80;;;3.17;;
57828;SDS011;43657;52.698;6.314;2023-12-20T12:28:40;13.85;;;2.95;;
57828;SDS011;43657;52.698;6.314;2023-12-20T12:33:56;18.95;;;3.80;;
57828;SDS011;43657;52.698;6.314;2023-12-20T12:36:29;14.02;;;3.22;;
57828;SDS011;43657;52.698;6.314;2023-12-20T12:38:56;18.02;;;3.63;;
57828;SDS011;43657;52.698;6.314;2023-12-20T12:41:29;21.65;;;3.88;;
57828;SDS011;43657;52.698;6.314;2023-12-20T12:43:57;19.77;;;3.60;;
57828;SDS011;43657;52.698;6.314;2023-12-20T12:46:23;16.10;;;3.05;;
57828;SDS011;43657;52.698;6.314;2023-12-20T12:48:48;15.35;;;3.08;;
57828;SDS011;43657;52.698;6.314;2023-12-20T12:51:17;17.77;;;4.00;;
57828;SDS011;43657;52.698;6.314;2023-12-20T12:53:42;11.80;;;3.05;;
57828;SDS011;43657;52.698;6.314;2023-12-20T12:56:12;17.30;;;3.05;;
57828;SDS011;43657;52.698;6.314;2023-12-20T12:58:42;16.65;;;4.15;;
57828;SDS011;43657;52.698;6.314;2023-12-20T13:01:13;13.20;;;3.33;;
57828;SDS011;43657;52.698;6.314;2023-12-20T13:03:50;18.05;;;3.45;;
57828;SDS011;43657;52.698;6.314;2023-12-20T13:06:16;15.93;;;3.22;;
57828;SDS011;43657;52.698;6.314;2023-12-20T13:08:44;16.75;;;3.35;;
57828;SDS011;43657;52.698;6.314;2023-12-20T13:11:12;16.70;;;4.53;;
57828;SDS011;43657;52.698;6.314;2023-12-20T13:13:38;13.95;;;3.17;;
57828;SDS011;43657;52.698;6.314;2023-12-20T13:16:04;18.50;;;3.78;;
57828;SDS011;43657;52.698;6.314;2023-12-20T13:18:30;14.05;;;3.42;;
57828;SDS011;43657;52.698;6.314;2023-12-20T13:20:56;14.73;;;2.97;;
57828;SDS011;43657;52.698;6.314;2023-12-20T13:23:21;25.38;;;4.75;;
57828;SDS011;43657;52.698;6.314;2023-12-20T13:25:47;19.58;;;3.45;;
57828;SDS011;43657;52.698;6.314;2023-12-20T13:28:18;19.92;;;3.25;;
57828;SDS011;43657;52.698;6.314;2023-12-20T13:30:44;13.07;;;3.35;;
57828;SDS011;43657;52.698;6.314;2023-12-20T13:33:10;14.18;;;3.22;;
57828;SDS011;43657;52.698;6.314;2023-12-20T13:35:47;15.43;;;3.10;;
57828;SDS011;43657;52.698;6.314;2023-12-20T13:38:30;18.48;;;3.88;;
57828;SDS011;43657;52.698;6.314;2023-12-20T13:40:58;19.27;;;3.67;;
57828;SDS011;43657;52.698;6.314;2023-12-20T13:43:24;20.60;;;3.80;;
57828;SDS011;43657;52.698;6.314;2023-12-20T13:45:53;19.50;;;3.88;;
57828;SDS011;43657;52.698;6.314;2023-12-20T13:48:21;18.80;;;3.60;;
57828;SDS011;43657;52.698;6.314;2023-12-20T13:50:49;19.40;;;3.45;;
57828;SDS011;43657;52.698;6.314;2023-12-20T13:53:15;16.40;;;3.67;;
57828;SDS011;43657;52.698;6.314;2023-12-20T13:55:44;18.00;;;3.97;;
57828;SDS011;43657;52.698;6.314;2023-12-20T13:58:12;22.10;;;5.10;;
57828;SDS011;43657;52.698;6.314;2023-12-20T14:00:41;19.33;;;5.05;;
57828;SDS011;43657;52.698;6.314;2023-12-20T14:03:09;26.58;;;6.07;;
57828;SDS011;43657;52.698;6.314;2023-12-20T14:05:38;27.77;;;6.32;;
57828;SDS011;43657;52.698;6.314;2023-12-20T14:08:07;32.05;;;6.88;;
57828;SDS011;43657;52.698;6.314;2023-12-20T14:10:41;31.38;;;7.47;;
57828;SDS011;43657;52.698;6.314;2023-12-20T14:13:09;27.10;;;7.40;;
57828;SDS011;43657;52.698;6.314;2023-12-20T14:15:48;42.35;;;8.90;;
57828;SDS011;43657;52.698;6.314;2023-12-20T14:18:14;33.72;;;7.55;;
57828;SDS011;43657;52.698;6.314;2023-12-20T14:20:40;36.15;;;8.35;;
57828;SDS011;43657;52.698;6.314;2023-12-20T14:23:07;34.72;;;7.97;;
57828;SDS011;43657;52.698;6.314;2023-12-20T14:25:34;35.55;;;8.05;;
57828;SDS011;43657;52.698;6.314;2023-12-20T14:28:05;29.45;;;7.70;;
57828;SDS011;43657;52.698;6.314;2023-12-20T14:30:30;31.98;;;6.95;;
57828;SDS011;43657;52.698;6.314;2023-12-20T14:32:57;22.23;;;5.68;;
57828;SDS011;43657;52.698;6.314;2023-12-20T14:35:23;33.22;;;7.57;;
57828;SDS011;43657;52.698;6.314;2023-12-20T14:37:51;31.58;;;6.72;;
57828;SDS011;43657;52.698;6.314;2023-12-20T14:40:18;30.02;;;6.43;;
57828;SDS011;43657;52.698;6.314;2023-12-20T14:42:45;29.38;;;6.45;;
57828;SDS011;43657;52.698;6.314;2023-12-20T14:45:11;32.47;;;7.95;;
57828;SDS011;43657;52.698;6.314;2023-12-20T14:47:39;24.30;;;6.05;;
57828;SDS011;43657;52.698;6.314;2023-12-20T14:50:05;25.98;;;6.18;;
57828;SDS011;43657;52.698;6.314;2023-12-20T14:52:34;32.33;;;7.05;;
57828;SDS011;43657;52.698;6.314;2023-12-20T14:55:11;29.17;;;6.28;;
57828;SDS011;43657;52.698;6.314;2023-12-20T14:57:36;30.02;;;7.10;;
57828;SDS011;43657;52.698;6.314;2023-12-20T15:00:02;26.00;;;6.53;;